createdAt,value
2019-02-03T00:00:13.787Z,1.62
2019-02-03T00:02:43.258Z,1.66
2019-02-03T00:05:12.943Z,1.61
2019-02-03T00:07:42.526Z,1.48
2019-02-03T00:10:12.216Z,1.41
2019-02-03T00:12:43.319Z,1.45
2019-02-03T00:15:12.881Z,1.45
2019-02-03T00:17:44.096Z,1.52
2019-02-03T00:20:13.584Z,1.46
2019-02-03T00:22:43.043Z,1.43
2019-02-03T00:25:12.919Z,1.46
2019-02-03T00:27:42.381Z,1.53
2019-02-03T00:30:14.303Z,1.35
2019-02-03T00:32:43.804Z,1.30
2019-02-03T00:35:15.143Z,1.31
2019-02-03T00:37:44.965Z,1.36
2019-02-03T00:40:15.350Z,1.31
2019-02-03T00:42:44.841Z,1.32
2019-02-03T00:45:15.053Z,1.37
2019-02-03T00:47:44.978Z,1.36
2019-02-03T00:50:16.163Z,1.35
2019-02-03T00:52:46.060Z,1.35
2019-02-03T00:55:17.474Z,1.34
2019-02-03T00:57:47.233Z,1.39
2019-02-03T01:00:17.911Z,1.32
2019-02-03T01:02:47.666Z,1.30
2019-02-03T01:05:18.599Z,1.25
2019-02-03T01:07:48.060Z,1.18
2019-02-03T01:10:20.393Z,1.13
2019-02-03T01:12:50.301Z,1.16
2019-02-03T01:15:19.843Z,1.20
2019-02-03T01:17:49.476Z,1.08
2019-02-03T01:20:23.830Z,1.06
2019-02-03T01:22:53.293Z,1.10
2019-02-03T01:25:23.058Z,1.16
2019-02-03T01:27:52.535Z,1.20
2019-02-03T01:30:23.283Z,1.10
2019-02-03T01:32:52.827Z,1.14
2019-02-03T01:35:22.309Z,1.16
2019-02-03T01:37:52.519Z,1.07
2019-02-03T01:40:22.035Z,1.02
2019-02-03T01:42:51.838Z,1.02
2019-02-03T01:45:22.472Z,1.07
2019-02-03T01:47:52.281Z,1.05
2019-02-03T01:50:22.090Z,1.08
2019-02-03T01:52:51.809Z,1.04
2019-02-03T01:55:27.601Z,1.14
2019-02-03T01:57:57.075Z,1.12
2019-02-03T02:00:28.185Z,1.10
2019-02-03T02:02:58.052Z,1.08
2019-02-03T02:05:27.593Z,1.18
2019-02-03T02:07:57.061Z,1.19
2019-02-03T02:10:29.859Z,1.09
2019-02-03T02:13:01.022Z,1.10
2019-02-03T02:15:31.029Z,1.07
2019-02-03T02:18:00.790Z,1.08
2019-02-03T02:20:30.497Z,1.11
2019-02-03T02:22:59.968Z,1.19
2019-02-03T02:25:29.567Z,1.09
2019-02-03T02:27:59.032Z,1.18
2019-02-03T02:30:28.513Z,1.21
2019-02-03T02:32:58.473Z,1.26
2019-02-03T02:35:28.083Z,1.31
2019-02-03T02:38:06.500Z,1.23
2019-02-03T02:40:28.721Z,1.21
2019-02-03T02:42:58.622Z,1.28
2019-02-03T02:45:28.082Z,1.17
2019-02-03T02:47:57.810Z,1.25
2019-02-03T02:50:33.152Z,1.22
2019-02-03T02:53:02.894Z,1.22
2019-02-03T02:55:33.185Z,1.21
2019-02-03T02:58:02.698Z,1.31
2019-02-03T03:00:32.502Z,1.15
2019-02-03T03:03:02.047Z,1.12
2019-02-03T03:05:31.519Z,1.23
2019-02-03T03:08:01.063Z,1.15
2019-02-03T03:10:30.930Z,1.15
2019-02-03T03:13:00.744Z,1.17
2019-02-03T03:15:30.556Z,1.14
2019-02-03T03:18:00.103Z,1.16
2019-02-03T03:20:29.640Z,1.17
2019-02-03T03:22:59.117Z,1.14
2019-02-03T03:25:28.587Z,1.09
2019-02-03T03:27:58.068Z,1.15
2019-02-03T03:30:29.123Z,1.17
2019-02-03T03:32:58.997Z,1.14
2019-02-03T03:35:28.985Z,1.02
2019-02-03T03:37:58.508Z,0.98
2019-02-03T03:40:29.425Z,1.02
2019-02-03T03:42:58.981Z,1.05
2019-02-03T03:45:30.493Z,1.07
2019-02-03T03:48:00.314Z,0.99
2019-02-03T03:50:29.855Z,0.99
2019-02-03T03:52:59.418Z,0.93
2019-02-03T03:55:28.953Z,1.06
2019-02-03T03:57:58.481Z,1.01
2019-02-03T04:00:27.941Z,0.95
2019-02-03T04:02:57.729Z,0.96
2019-02-03T04:05:27.182Z,1.00
2019-02-03T04:07:56.661Z,1.05
2019-02-03T04:10:26.441Z,0.95
2019-02-03T04:12:56.457Z,1.02
2019-02-03T04:15:27.636Z,1.02
2019-02-03T04:17:57.417Z,1.04
2019-02-03T04:20:28.739Z,1.03
2019-02-03T04:22:58.660Z,1.03
2019-02-03T04:25:28.606Z,1.02
2019-02-03T04:27:58.540Z,1.03
2019-02-03T04:30:28.003Z,1.09
2019-02-03T04:32:57.475Z,1.04
2019-02-03T04:35:26.948Z,0.95
2019-02-03T04:37:56.422Z,0.92
2019-02-03T04:40:25.947Z,0.94
2019-02-03T04:42:55.425Z,1.02
2019-02-03T04:45:24.881Z,1.04
2019-02-03T04:47:54.363Z,1.04
2019-02-03T04:50:24.151Z,1.04
2019-02-03T04:52:53.960Z,1.03
2019-02-03T04:55:23.703Z,1.02
2019-02-03T04:57:53.188Z,0.93
2019-02-03T05:00:24.295Z,0.92
2019-02-03T05:02:53.779Z,0.93
2019-02-03T05:05:23.252Z,0.91
2019-02-03T05:07:53.049Z,0.94
2019-02-03T05:10:22.961Z,0.99
2019-02-03T05:12:52.435Z,0.99
2019-02-03T05:15:23.446Z,1.05
2019-02-03T05:17:52.992Z,0.97
2019-02-03T05:20:24.565Z,0.99
2019-02-03T05:22:54.205Z,1.01
2019-02-03T05:25:23.901Z,0.87
2019-02-03T05:27:53.443Z,0.86
2019-02-03T05:30:28.435Z,0.82
2019-02-03T05:32:59.591Z,0.83
2019-02-03T05:35:29.607Z,0.84
2019-02-03T05:37:59.843Z,0.80
2019-02-03T05:40:29.724Z,0.82
2019-02-03T05:42:59.206Z,0.80
2019-02-03T05:45:29.051Z,0.77
2019-02-03T05:47:58.523Z,0.75
2019-02-03T05:50:28.042Z,0.77
2019-02-03T05:52:57.510Z,0.82
2019-02-03T05:55:26.992Z,0.77
2019-02-03T05:57:56.471Z,0.73
2019-02-03T06:00:29.484Z,0.72
2019-02-03T06:02:59.037Z,0.79
2019-02-03T06:05:30.124Z,0.78
2019-02-03T06:07:59.615Z,0.81
2019-02-03T06:10:29.412Z,0.90
2019-02-03T06:12:59.160Z,0.80
2019-02-03T06:15:28.874Z,0.80
2019-02-03T06:17:58.333Z,0.76
2019-02-03T06:20:27.862Z,0.86
2019-02-03T06:22:57.865Z,0.83
2019-02-03T06:25:27.297Z,0.84
2019-02-03T06:27:56.803Z,0.83
2019-02-03T06:30:47.465Z,0.82
2019-02-03T06:33:17.028Z,0.84
2019-02-03T06:35:46.883Z,0.89
2019-02-03T06:38:16.353Z,0.77
2019-02-03T06:40:45.837Z,0.78
2019-02-03T06:43:15.341Z,0.70
2019-02-03T06:45:46.707Z,0.69
2019-02-03T06:48:20.976Z,0.74
2019-02-03T06:50:50.453Z,0.71
2019-02-03T06:53:20.035Z,0.79
2019-02-03T06:55:49.494Z,0.77
2019-02-03T06:58:19.304Z,0.72
2019-02-03T07:00:49.126Z,0.73
2019-02-03T07:03:20.248Z,0.68
2019-02-03T07:05:49.714Z,0.75
2019-02-03T07:08:19.478Z,0.76
2019-02-03T07:10:48.975Z,0.78
2019-02-03T07:13:18.507Z,0.86
2019-02-03T07:15:48.505Z,0.84
2019-02-03T07:18:18.258Z,0.79
2019-02-03T07:20:47.732Z,0.86
2019-02-03T07:23:17.733Z,0.90
2019-02-03T07:25:47.190Z,0.86
2019-02-03T07:28:16.704Z,0.82
2019-02-03T07:30:46.214Z,0.81
2019-02-03T07:33:15.691Z,0.74
2019-02-03T07:35:45.169Z,0.79
2019-02-03T07:38:14.627Z,0.79
2019-02-03T07:40:44.102Z,0.74
2019-02-03T07:43:13.926Z,0.69
2019-02-03T07:45:43.419Z,0.70
2019-02-03T07:48:15.937Z,0.66
2019-02-03T07:50:48.850Z,0.67
2019-02-03T07:53:18.339Z,0.57
2019-02-03T07:55:48.084Z,0.59
2019-02-03T07:58:17.664Z,0.54
2019-02-03T08:00:47.404Z,0.55
2019-02-03T08:03:17.709Z,0.52
2019-02-03T08:05:47.162Z,0.51
2019-02-03T08:08:17.328Z,0.49
2019-02-03T08:10:46.785Z,0.47
2019-02-03T08:13:16.258Z,0.47
2019-02-03T08:15:45.719Z,0.52
2019-02-03T08:18:17.085Z,0.57
2019-02-03T08:20:46.913Z,0.52
2019-02-03T08:23:16.912Z,0.51
2019-02-03T08:25:46.741Z,0.50
2019-02-03T08:28:17.456Z,0.48
2019-02-03T08:30:47.506Z,0.41
2019-02-03T08:33:17.041Z,0.44
2019-02-03T08:35:46.943Z,0.42
2019-02-03T08:38:16.733Z,0.49
2019-02-03T08:40:46.182Z,0.47
2019-02-03T08:43:15.716Z,0.46
2019-02-03T08:45:45.183Z,0.47
2019-02-03T08:48:14.659Z,0.46
2019-02-03T08:50:44.305Z,0.45
2019-02-03T08:53:13.782Z,0.41
2019-02-03T08:55:43.253Z,0.42
2019-02-03T08:58:12.779Z,0.41
2019-02-03T09:00:42.323Z,0.41
2019-02-03T09:03:12.177Z,0.39
2019-02-03T09:05:42.001Z,0.41
2019-02-03T09:08:11.455Z,0.43
2019-02-03T09:10:48.166Z,0.41
2019-02-03T09:13:12.106Z,0.44
2019-02-03T09:15:41.583Z,0.42
2019-02-03T09:18:11.178Z,0.38
2019-02-03T09:20:40.709Z,0.40
2019-02-03T09:23:10.475Z,0.41
2019-02-03T09:25:40.586Z,0.40
2019-02-03T09:28:10.062Z,0.42
2019-02-03T09:30:40.211Z,0.42
2019-02-03T09:33:10.252Z,0.47
2019-02-03T09:35:39.916Z,0.42
2019-02-03T09:38:09.402Z,0.51
2019-02-03T09:40:38.890Z,0.53
2019-02-03T09:43:08.356Z,0.50
2019-02-03T09:45:37.828Z,0.47
2019-02-03T09:48:07.364Z,0.47
2019-02-03T09:50:37.100Z,0.46
2019-02-03T09:53:07.014Z,0.46
2019-02-03T09:55:36.501Z,0.51
2019-02-03T09:58:07.645Z,0.50
2019-02-03T10:00:38.681Z,0.51
2019-02-03T10:03:10.712Z,0.46
2019-02-03T10:05:40.178Z,0.46
2019-02-03T10:08:09.652Z,0.47
2019-02-03T10:10:41.470Z,0.44
2019-02-03T10:13:10.968Z,0.49
2019-02-03T10:15:40.442Z,0.56
2019-02-03T10:18:10.334Z,0.55
2019-02-03T10:20:39.802Z,0.53
2019-02-03T10:23:09.257Z,0.60
2019-02-03T10:25:38.761Z,0.59
2019-02-03T10:28:08.201Z,0.63
2019-02-03T10:30:38.095Z,0.59
2019-02-03T10:33:07.647Z,0.60
2019-02-03T10:35:37.121Z,0.67
2019-02-03T10:38:07.739Z,0.70
2019-02-03T10:40:43.901Z,0.66
2019-02-03T10:43:13.618Z,0.66
2019-02-03T10:45:43.103Z,0.70
2019-02-03T10:48:12.908Z,0.61
2019-02-03T10:50:42.664Z,0.58
2019-02-03T10:53:13.430Z,0.59
2019-02-03T10:55:43.109Z,0.62
2019-02-03T10:58:15.149Z,0.66
2019-02-03T11:00:44.816Z,0.62
2019-02-03T11:03:14.272Z,0.60
2019-02-03T11:05:49.323Z,0.65
2019-02-03T11:08:19.096Z,0.66
2019-02-03T11:10:48.585Z,0.67
2019-02-03T11:13:18.412Z,0.67
2019-02-03T11:15:47.950Z,0.68
2019-02-03T11:18:17.742Z,0.63
2019-02-03T11:20:47.225Z,0.62
2019-02-03T11:23:16.732Z,0.60
2019-02-03T11:25:46.354Z,0.59
2019-02-03T11:28:15.815Z,0.58
2019-02-03T11:30:45.766Z,0.59
2019-02-03T11:33:15.772Z,0.58
2019-02-03T11:35:45.250Z,0.55
2019-02-03T11:38:15.104Z,0.59
2019-02-03T11:40:44.588Z,0.60
2019-02-03T11:43:14.464Z,0.57
2019-02-03T11:45:44.135Z,0.60
2019-02-03T11:48:16.325Z,0.62
2019-02-03T11:50:47.144Z,0.63
2019-02-03T11:53:19.864Z,0.64
2019-02-03T11:55:49.314Z,0.64
2019-02-03T11:58:18.769Z,0.68
2019-02-03T12:00:48.729Z,0.76
2019-02-03T12:03:18.297Z,0.84
2019-02-03T12:05:48.087Z,0.78
2019-02-03T12:08:17.707Z,0.73
2019-02-03T12:10:47.181Z,0.73
2019-02-03T12:13:16.983Z,0.76
2019-02-03T12:15:48.113Z,0.73
2019-02-03T12:18:17.843Z,0.71
2019-02-03T12:20:47.324Z,0.69
2019-02-03T12:23:16.847Z,0.63
2019-02-03T12:25:46.615Z,0.71
2019-02-03T12:28:16.084Z,0.73
2019-02-03T12:30:45.585Z,0.72
2019-02-03T12:33:15.024Z,0.77
2019-02-03T12:35:44.766Z,0.69
2019-02-03T12:38:14.249Z,0.74
2019-02-03T12:40:43.710Z,0.75
2019-02-03T12:43:13.500Z,0.71
2019-02-03T12:45:42.961Z,0.64
2019-02-03T12:48:12.439Z,0.67
2019-02-03T12:50:41.916Z,0.66
2019-02-03T12:53:11.782Z,0.68
2019-02-03T12:55:41.442Z,0.74
2019-02-03T12:58:10.987Z,0.69
2019-02-03T13:00:40.486Z,0.80
2019-02-03T13:03:09.952Z,0.87
2019-02-03T13:05:39.427Z,0.82
2019-02-03T13:08:08.974Z,0.78
2019-02-03T13:10:39.692Z,0.80
2019-02-03T13:13:09.526Z,0.83
2019-02-03T13:15:42.481Z,0.82
2019-02-03T13:18:12.736Z,0.78
2019-02-03T13:20:43.032Z,0.76
2019-02-03T13:23:13.230Z,0.73
2019-02-03T13:25:42.816Z,0.79
2019-02-03T13:28:12.304Z,0.76
2019-02-03T13:30:44.399Z,0.77
2019-02-03T13:33:14.919Z,0.78
2019-02-03T13:35:44.440Z,0.80
2019-02-03T13:38:14.272Z,0.82
2019-02-03T13:40:44.092Z,0.81
2019-02-03T13:43:13.834Z,0.76
2019-02-03T13:45:45.097Z,0.68
2019-02-03T13:48:14.779Z,0.68
2019-02-03T13:50:44.280Z,0.73
2019-02-03T13:53:13.820Z,0.68
2019-02-03T13:55:43.326Z,0.63
2019-02-03T13:58:13.270Z,0.60
2019-02-03T14:00:45.278Z,0.54
2019-02-03T14:03:14.816Z,0.63
2019-02-03T14:05:44.570Z,0.61
2019-02-03T14:08:14.064Z,0.59
2019-02-03T14:10:44.090Z,0.65
2019-02-03T14:13:13.568Z,0.70
2019-02-03T14:15:43.057Z,0.73
2019-02-03T14:18:12.557Z,0.72
2019-02-03T14:20:42.321Z,0.62
2019-02-03T14:23:12.429Z,0.62
2019-02-03T14:25:41.884Z,0.60
2019-02-03T14:28:11.703Z,0.60
2019-02-03T14:31:03.100Z,0.59
2019-02-03T14:33:32.948Z,0.57
2019-02-03T14:36:02.401Z,0.49
2019-02-03T14:38:32.646Z,0.50
2019-02-03T14:41:02.622Z,0.47
2019-02-03T14:43:32.402Z,0.54
2019-02-03T14:46:02.267Z,0.62
2019-02-03T14:48:32.103Z,0.59
2019-02-03T14:51:01.944Z,0.55
2019-02-03T14:53:31.894Z,0.57
2019-02-03T14:56:01.414Z,0.62
2019-02-03T14:58:30.896Z,0.55
2019-02-03T15:01:00.374Z,0.51
2019-02-03T15:03:30.529Z,0.52
2019-02-03T15:06:00.387Z,0.45
2019-02-03T15:08:30.200Z,0.36
2019-02-03T15:10:59.664Z,0.38
2019-02-03T15:13:29.129Z,0.37
2019-02-03T15:15:58.588Z,0.37
2019-02-03T15:18:28.079Z,0.35
2019-02-03T15:20:57.596Z,0.39
2019-02-03T15:23:27.126Z,0.44
2019-02-03T15:25:56.871Z,0.32
2019-02-03T15:28:26.867Z,0.28
2019-02-03T15:30:57.007Z,0.28
2019-02-03T15:33:26.502Z,0.32
2019-02-03T15:35:56.309Z,0.35
2019-02-03T15:38:25.964Z,0.40
2019-02-03T15:40:55.751Z,0.36
2019-02-03T15:43:25.945Z,0.40
2019-02-03T15:45:55.554Z,0.34
2019-02-03T15:48:25.113Z,0.31
2019-02-03T15:50:54.591Z,0.25
2019-02-03T15:53:24.139Z,0.27
2019-02-03T15:55:53.890Z,0.21
2019-02-03T15:58:23.435Z,0.21
2019-02-03T16:00:56.204Z,0.24
2019-02-03T16:03:39.044Z,0.22
2019-02-03T16:06:17.602Z,0.30
2019-02-03T16:08:51.448Z,0.26
2019-02-03T16:11:29.885Z,0.21
2019-02-03T16:14:03.166Z,0.23
2019-02-03T16:16:38.011Z,0.27
2019-02-03T16:19:14.427Z,0.23
2019-02-03T16:21:54.179Z,0.25
2019-02-03T16:24:30.127Z,0.25
2019-02-03T16:27:04.536Z,0.27
2019-02-03T16:29:40.297Z,0.28
2019-02-03T16:32:23.978Z,0.31
2019-02-03T16:34:57.223Z,0.27
2019-02-03T16:37:50.275Z,0.26
2019-02-03T16:40:28.757Z,0.26
2019-02-03T16:43:00.501Z,0.26
2019-02-03T16:45:34.457Z,0.34
2019-02-03T16:48:08.521Z,0.28
2019-02-03T16:50:49.826Z,0.31
2019-02-03T16:53:24.026Z,0.28
2019-02-03T16:56:02.112Z,0.39
2019-02-03T16:58:37.811Z,0.35
2019-02-03T17:01:10.609Z,0.38
2019-02-03T17:03:43.372Z,0.37
2019-02-03T17:06:14.992Z,0.34
2019-02-03T17:08:47.373Z,0.32
2019-02-03T17:11:28.499Z,0.38
2019-02-03T17:14:02.926Z,0.31
2019-02-03T17:16:43.390Z,0.35
2019-02-03T17:19:24.462Z,0.35
2019-02-03T17:21:53.414Z,0.36
2019-02-03T17:27:35.428Z,0.31
2019-02-03T17:30:00.525Z,0.27
2019-02-03T17:32:33.615Z,0.32
2019-02-03T17:35:17.002Z,0.37
2019-02-03T17:37:55.615Z,0.30
2019-02-03T17:40:37.616Z,0.30
2019-02-03T17:43:20.175Z,0.31
2019-02-03T17:45:56.522Z,0.22
2019-02-03T17:48:26.136Z,0.24
2019-02-03T17:50:57.801Z,0.27
2019-02-03T17:53:38.437Z,0.39
2019-02-03T17:56:17.116Z,0.35
2019-02-03T17:59:15.594Z,0.30
2019-02-03T18:01:42.611Z,0.29
2019-02-03T18:04:21.714Z,0.32
2019-02-03T18:06:52.335Z,0.32
2019-02-03T18:09:39.674Z,0.33
2019-02-03T18:12:17.454Z,0.35
2019-02-03T18:14:51.365Z,0.36
2019-02-03T18:17:36.628Z,0.33
2019-02-03T18:20:19.712Z,0.33
2019-02-03T18:22:53.926Z,0.26
2019-02-03T18:25:23.868Z,0.21
2019-02-03T18:27:59.441Z,0.21
2019-02-03T18:30:35.741Z,0.23
2019-02-03T18:33:12.275Z,0.21
2019-02-03T18:35:54.799Z,0.50
2019-02-03T18:38:36.380Z,0.70
2019-02-03T18:41:14.464Z,0.46
2019-02-03T18:43:52.037Z,0.28
2019-02-03T18:46:36.759Z,0.28
2019-02-03T18:49:12.735Z,0.23
2019-02-03T18:51:48.547Z,0.26
2019-02-03T18:54:21.347Z,0.20
2019-02-03T18:56:51.098Z,0.22
2019-02-03T18:59:20.577Z,0.18
2019-02-03T19:01:50.039Z,0.15
2019-02-03T19:04:19.690Z,0.25
2019-02-03T19:06:49.220Z,0.31
2019-02-03T19:09:18.695Z,0.29
2019-02-03T19:11:48.164Z,0.24
2019-02-03T19:14:17.670Z,0.23
2019-02-03T19:16:47.474Z,0.25
2019-02-03T19:19:17.095Z,0.17
2019-02-03T19:21:46.797Z,0.21
2019-02-03T19:24:17.895Z,0.27
2019-02-03T19:26:47.363Z,0.23
2019-02-03T19:29:16.853Z,0.26
2019-02-03T19:31:46.903Z,0.22
2019-02-03T19:34:17.792Z,0.18
2019-02-03T19:36:47.621Z,0.18
2019-02-03T19:39:17.130Z,0.24
2019-02-03T19:41:46.678Z,0.25
2019-02-03T19:44:16.728Z,0.26
2019-02-03T19:46:46.210Z,0.18
2019-02-03T19:49:16.593Z,0.16
2019-02-03T19:51:46.483Z,0.21
2019-02-03T19:54:15.955Z,0.22
2019-02-03T19:56:45.440Z,0.17
2019-02-03T19:59:15.214Z,0.19
2019-02-03T20:01:45.572Z,0.22
2019-02-03T20:04:16.069Z,0.23
2019-02-03T20:06:45.959Z,0.16
2019-02-03T20:09:16.346Z,0.23
2019-02-03T20:11:46.816Z,0.30
2019-02-03T20:14:16.513Z,0.31
2019-02-03T20:16:46.041Z,0.30
2019-02-03T20:19:15.507Z,0.26
2019-02-03T20:21:44.991Z,0.31
2019-02-03T20:24:14.591Z,0.32
2019-02-03T20:26:44.089Z,0.31
2019-02-03T20:29:13.815Z,0.33
2019-02-03T20:31:45.833Z,0.31
2019-02-03T20:34:15.297Z,0.29
2019-02-03T20:36:44.763Z,0.33
2019-02-03T20:39:14.505Z,0.36
2019-02-03T20:41:44.048Z,0.38
2019-02-03T20:44:13.503Z,0.37
2019-02-03T20:46:42.981Z,0.37
2019-02-03T20:49:12.460Z,0.28
2019-02-03T20:51:42.313Z,0.36
2019-02-03T20:54:11.768Z,0.39
2019-02-03T20:56:41.520Z,0.33
2019-02-03T20:59:10.986Z,0.33
2019-02-03T21:01:40.479Z,0.39
2019-02-03T21:04:10.252Z,0.37
2019-02-03T21:06:40.117Z,0.34
2019-02-03T21:09:09.854Z,0.33
2019-02-03T21:11:39.342Z,0.33
2019-02-03T21:14:08.929Z,0.40
2019-02-03T21:16:38.412Z,0.42
2019-02-03T21:19:07.873Z,0.40
2019-02-03T21:21:37.425Z,0.32
2019-02-03T21:24:07.658Z,0.28
2019-02-03T21:26:39.006Z,0.35
2019-02-03T21:29:08.542Z,0.32
2019-02-03T21:31:38.046Z,0.29
2019-02-03T21:34:08.131Z,0.28
2019-02-03T21:36:37.631Z,0.30
2019-02-03T21:39:07.741Z,0.27
2019-02-03T21:41:37.217Z,0.29
2019-02-03T21:44:06.681Z,0.32
2019-02-03T21:46:36.479Z,0.33
2019-02-03T21:49:06.110Z,0.26
2019-02-03T21:51:35.581Z,0.23
2019-02-03T21:54:05.355Z,0.30
2019-02-03T21:56:35.194Z,0.37
2019-02-03T21:59:04.734Z,0.33
2019-02-03T22:01:34.694Z,0.31
2019-02-03T22:04:04.219Z,0.29
2019-02-03T22:06:33.692Z,0.34
2019-02-03T22:09:03.163Z,0.31
2019-02-03T22:11:32.633Z,0.30
2019-02-03T22:14:02.106Z,0.31
2019-02-03T22:16:31.587Z,0.37
2019-02-03T22:19:01.048Z,0.35
2019-02-03T22:21:30.529Z,0.28
2019-02-03T22:23:59.994Z,0.22
2019-02-03T22:26:29.551Z,0.22
2019-02-03T22:28:59.756Z,0.31
2019-02-03T22:31:29.380Z,0.33
2019-02-03T22:33:58.844Z,0.34
2019-02-03T22:36:28.342Z,0.34
2019-02-03T22:38:57.981Z,0.39
2019-02-03T22:41:27.750Z,0.39
2019-02-03T22:43:58.856Z,0.40
2019-02-03T22:46:28.610Z,0.34
2019-02-03T22:48:58.957Z,0.32
2019-02-03T22:51:28.516Z,0.26
2019-02-03T22:53:57.979Z,0.29
2019-02-03T22:56:28.003Z,0.33
2019-02-03T22:58:57.501Z,0.31
2019-02-03T23:01:27.240Z,0.28
2019-02-03T23:03:56.992Z,0.26
2019-02-03T23:06:26.532Z,0.25
2019-02-03T23:08:56.466Z,0.35
2019-02-03T23:11:26.108Z,0.31
2019-02-03T23:13:55.837Z,0.30
2019-02-03T23:16:25.573Z,0.26
2019-02-03T23:18:55.052Z,0.30
2019-02-03T23:21:24.527Z,0.31
2019-02-03T23:23:54.089Z,0.26
2019-02-03T23:26:23.598Z,0.24
2019-02-03T23:28:53.088Z,0.30
2019-02-03T23:31:22.781Z,0.27
2019-02-03T23:33:52.399Z,0.26
2019-02-03T23:36:22.206Z,0.32
2019-02-03T23:38:51.707Z,0.33
2019-02-03T23:41:21.941Z,0.36
2019-02-03T23:43:51.762Z,0.35
2019-02-03T23:46:29.297Z,0.34
2019-02-03T23:48:52.415Z,0.34
2019-02-03T23:51:22.230Z,0.31
2019-02-03T23:53:51.715Z,0.26
2019-02-03T23:56:21.527Z,0.24
2019-02-03T23:58:51.059Z,0.22
